Flight Track Log - Related Links

Times and Time Zones

All times are in EDT time to prevent confusion due to time zone crossing. See the UAL4462 flight status page for this flight to view local times or setup timezone preferences in your user account.

Time Position Orientation Groundspeed Altitude Reporting Facility
EDT Latitude Longitude Course Direction KTS MPH feet Rate Location/Type
Sat 05:57:08 AM 33.6500 -84.4667 53° Northeast 167 192 2,500  Level Atlanta TRACON
Sat 05:58:08 AM 33.6500 -84.5333 270° West 235 270 3,500 1,650 Climbing Atlanta TRACON
Sat 05:59:00 AM 33.7308 -84.0099 54° Northeast  Level FlightAware Approximate
Sat 05:59:08 AM 33.7167 -84.5833 328° Northwest 272 313 5,800  Level Atlanta TRACON
Sat 06:00:00 AM 33.7999 -83.8949 54° Northeast  Level FlightAware Approximate
Sat 06:00:08 AM 33.7833 -84.5833 360° North 275 316 7,900  Level Atlanta TRACON
Sat 06:01:00 AM 33.8692 -83.7800 48° Northeast  Level FlightAware Approximate
Sat 06:01:50 AM 33.8394 -84.4614 61° Northeast 284 327 10,700  Level Atlanta Center
Sat 06:02:00 AM 33.9450 -83.6712 53° Northeast  Level FlightAware Approximate
Sat 06:02:50 AM 33.8522 -84.3564 82° East 290 334 11,900  Level Atlanta Center
Sat 06:03:50 AM 33.8650 -84.2439 82° East 318 366 12,900 1,000 Climbing Atlanta Center
Sat 06:04:50 AM 33.8797 -84.1264 81° East 341 392 13,900 950 Climbing Atlanta Center
Sat 06:05:50 AM 33.8922 -84.0039 83° East 359 413 14,800 950 Climbing Atlanta Center
Sat 06:06:50 AM 33.9069 -83.8811 82° East 365 420 15,800 1,000 Climbing Atlanta Center
Sat 06:07:50 AM 33.9211 -83.7583 82° East 370 426 16,800 1,000 Climbing Atlanta Center
Sat 06:08:50 AM 33.9731 -83.6531 59° Northeast 359 413 17,800 900 Climbing Atlanta Center
Sat 06:09:50 AM 34.0333 -83.5550 53° Northeast 353 406 18,600 900 Climbing Atlanta Center
Sat 06:10:50 AM 34.0956 -83.4544 53° Northeast 359 413 19,600 1,000 Climbing Atlanta Center
Sat 06:11:50 AM 34.1597 -83.3533 52° Northeast 370 426 20,600 950 Climbing Atlanta Center
Sat 06:12:50 AM 34.2217 -83.2500 54° Northeast 370 426 21,500 950 Climbing Atlanta Center
Sat 06:13:50 AM 34.2836 -83.1489 53° Northeast 370 426 22,500 1,000 Climbing Atlanta Center
Sat 06:14:50 AM 34.3494 -83.0450 52° Northeast 375 432 23,500 950 Climbing Atlanta Center
Sat 06:15:50 AM 34.4133 -82.9408 53° Northeast 375 432 24,400 950 Climbing Atlanta Center
Sat 06:16:50 AM 34.4792 -82.8369 52° Northeast 381 438 25,400 950 Climbing Atlanta Center
Sat 06:17:50 AM 34.5428 -82.7350 53° Northeast 381 438 26,300 950 Climbing Atlanta Center
Sat 06:18:50 AM 34.6064 -82.6281 54° Northeast 381 438 27,300 1,000 Climbing Atlanta Center
Sat 06:19:50 AM 34.6697 -82.5233 54° Northeast 381 438 28,300 1,000 Climbing Atlanta Center
Sat 06:20:50 AM 34.7353 -82.4211 52° Northeast 381 438 29,300 950 Climbing Atlanta Center
Sat 06:21:50 AM 34.7986 -82.3136 54° Northeast 386 444 30,200 850 Climbing Atlanta Center
Sat 06:22:50 AM 34.8639 -82.2086 53° Northeast 386 444 31,000 400 Climbing Atlanta Center
Sat 06:23:50 AM 34.9411 -82.0878 52° Northeast 392 451 31,000  Level Atlanta Center
Sat 06:24:50 AM 35.0122 -81.9694 54° Northeast 410 472 31,000  Level Atlanta Center
Sat 06:25:50 AM 35.0831 -81.8408 56° Northeast 432 497 31,000  Level Atlanta Center
Sat 06:26:50 AM 35.1517 -81.7094 57° Northeast 446 513 31,000  Level Atlanta Center
Sat 06:27:50 AM 35.2181 -81.5803 58° Northeast 452 520 31,000  Level Atlanta Center
Sat 06:28:50 AM 35.2883 -81.4511 56° Northeast 458 527 31,000  Level Atlanta Center
Sat 06:29:50 AM 35.3522 -81.3242 58° Northeast 452 520 31,000  Level Atlanta Center
Sat 06:30:50 AM 35.4161 -81.1972 58° Northeast 442 509 31,000  Level Atlanta Center
Sat 06:31:50 AM 35.4761 -81.0806 58° Northeast 442 509 31,000  Level Atlanta Center
Sat 06:32:50 AM 35.5458 -80.9528 56° Northeast 442 509 31,000  Level Atlanta Center
Sat 06:33:50 AM 35.6133 -80.8200 58° Northeast 447 514 31,000  Level Atlanta Center
Sat 06:34:50 AM 35.6808 -80.6897 57° Northeast 447 514 31,000  Level Atlanta Center
Sat 06:35:50 AM 35.7483 -80.5589 58° Northeast 447 514 31,000  Level Atlanta Center
Sat 06:36:50 AM 35.8175 -80.4278 57° Northeast 447 514 31,000  Level Atlanta Center
Sat 06:37:50 AM 35.8822 -80.2944 59° Northeast 447 514 31,000  Level Atlanta Center
Sat 06:38:50 AM 35.9511 -80.1603 58° Northeast 447 514 31,000  Level Atlanta Center
Sat 06:39:51 AM 36.0178 -80.0261 58° Northeast 447 514 31,000  Level Atlanta Center
Sat 06:41:07 AM 36.1192 -79.8503 54° Northeast 466 536 31,000  Level Washington Center
Sat 06:42:11 AM 36.1936 -79.7192 55° Northeast 466 536 31,000  Level Washington Center
Sat 06:43:12 AM 36.2669 -79.5856 56° Northeast 468 539 31,000  Level Washington Center
Sat 06:44:13 AM 36.3433 -79.4519 55° Northeast 470 541 31,000  Level Washington Center
Sat 06:45:13 AM 36.4186 -79.3164 55° Northeast 471 542 31,000 -492 Level Washington Center
Sat 06:46:15 AM 36.4933 -79.1836 55° Northeast 472 543 30,000 -968 Descending Washington Center
Sat 06:47:17 AM 36.5689 -79.0481 55° Northeast 473 544 29,000 -1,512 Descending Washington Center
Sat 06:48:18 AM 36.6567 -78.8869 56° Northeast 471 542 26,900 -1,951 Descending Washington Center
Sat 06:49:20 AM 36.7278 -78.7581 55° Northeast 459 528 25,000 -927 Descending Washington Center
Sat 06:50:21 AM 36.7981 -78.6322 55° Northeast 450 518 25,000 -689 Level Washington Center
Sat 06:51:22 AM 36.8647 -78.5094 56° Northeast 435 501 23,600 -1,426 Descending Washington Center
Sat 06:52:23 AM 36.9286 -78.3964 55° Northeast 418 481 22,100 -787 Descending Washington Center
Sat 06:53:24 AM 36.9933 -78.2761 56° Northeast 413 475 22,000 -50 Descending Washington Center
Sat 06:54:24 AM 37.0781 -78.1750 44° Northeast 421 484 22,000  Level Washington Center
Sat 06:55:27 AM 37.1803 -78.0972 31° Northeast 427 491 22,000  Level Washington Center
Sat 06:56:28 AM 37.2828 -78.0189 31° Northeast 432 497 22,000  Level Washington Center
Sat 06:57:30 AM 37.4011 -77.9261 32° Northeast 426 490 22,000  Level Washington Center
Sat 06:58:32 AM 37.5011 -77.8506 31° Northeast 423 487 22,000 -295 Level Washington Center
Sat 06:59:32 AM 37.6025 -77.7856 27° Northeast 414 476 21,400 -1,041 Descending Washington Center
Sat 07:00:33 AM 37.7086 -77.7236 25° Northeast 415 478 19,900 -1,488 Descending Washington Center
Sat 07:01:37 AM 37.8117 -77.6625 25° Northeast 414 476 18,300 -1,920 Descending Washington Center
Sat 07:02:38 AM 37.9075 -77.6067 25° Northeast 386 444 15,900 -2,390 Descending Washington Center
Sat 07:03:40 AM 38.0006 -77.5528 25° Northeast 374 430 13,400 -2,262 Descending Washington Center
Sat 07:04:40 AM 38.1072 -77.4897 25° Northeast 374 430 11,300 -1,574 Descending Washington Center
Sat 07:05:42 AM 38.1928 -77.4383 25° Northeast 349 402 10,200 -885 Descending Washington Center
Sat 07:06:42 AM 38.2689 -77.3933 25° Northeast 312 359 9,500 -1,210 Descending Washington Center
Sat 07:07:46 AM 38.3436 -77.4036 354° North 284 327 7,700 -1,248 Descending Washington Center
Sat 07:08:47 AM 38.4153 -77.4256 347° North 268 308 6,900 -590 Descending Washington Center
Sat 07:09:48 AM 38.5036 -77.4550 345° North 269 310 6,500 -672 Descending Washington Center
Sat 07:10:52 AM 38.5772 -77.4678 352° North 269 310 5,500 -903 Descending Washington Center
Sat 07:11:41 AM 38.6333 -77.4667 North 260 299 4,800 -716 Descending Potomac TRACON
Sat 07:12:41 AM 38.7000 -77.4667 360° North 217 250 4,200 -500 Descending Potomac TRACON
Sat 07:13:41 AM 38.7667 -77.4667 360° North 203 234 3,800 -684 Descending Potomac TRACON
Sat 07:14:35 AM 38.8000 -77.4667 360° North 177 204 2,900 -833 Descending Potomac TRACON
Sat 07:15:29 AM 38.8500 -77.4667 360° North 126 145 2,300 -684 Descending Potomac TRACON
Sat 07:16:29 AM 38.8833 -77.4667 360° North 125 144 1,600 -684 Descending Potomac TRACON
Sat 07:17:23 AM 38.9167 -77.4667 360° North 126 145 1,000 -465 Descending Potomac TRACON
Sat 07:19:04 AM 38.9594 -77.4603 North 127 146 400 -356 Descending Washington Center

Login

Don't have an account? Register now (free) for customized features, flight alerts, and more!